MET'MAP v2.0
soon released !

Expected late october,
this new version will be
more efficient, smarter,
and hosted on a brand new
server x3 powerfull...
...and still free !


Not compatible ?
Try the mobile version !

LOG IN : | Subscribe | Disclaimer | Who is Orbifly ? |
ICAO code :

TAF - LTBR Yenisehir AB - 04 Apr 2020 12:10 UTC - Data Source NOAA   


- Airport Elevation : 764 ft
- IATA code : YEI
- No reported NOTAMs.


LTBR - Yenisehir AB

Latest METAR recorded : 2015/08/11 07:50 LTBR 110750Z VRB03KT 9999 SCT035 27/19 Q1011 NOSIG
TAF TAF LTBR
Valid from the 04 at 06:00 until the 05 at 06:00 UTC


040440Z 0406/0506 VRB02KT CAVOK
BECMG 0406/0408 08012KT SCT035 BKN100 BKN180
PROB40
TEMPO 0409/0412 -SHRA BKN025 BKN080
PROB30 0412/0416 09015G25KT -SHRA BKN025 BKN080
PROB30 0412/0416 -SHRA BKN025 BKN080

Source NOAA


MET'MAP, your aeronautical weather chart ! - Copyright ORBIFLY December 2007

Programming & Development : Alexandra Zaïnal
Co-Developer : Marc-Olivier Méhu
Technical & hardware support : Manuel Goepfert
Concept & Financing : Baudouin d'Aumeries